sensor_id;sensor_type;location;lat;lon;timestamp;P1;durP1;ratioP1;P2;durP2;ratioP2
67278;SDS011;54193;53.746;10.058;2023-04-15T00:01:30;13.40;;;5.20;;
67278;SDS011;54193;53.746;10.058;2023-04-15T00:04:18;16.02;;;5.55;;
67278;SDS011;54193;53.746;10.058;2023-04-15T00:07:04;14.97;;;5.40;;
67278;SDS011;54193;53.746;10.058;2023-04-15T00:09:50;14.68;;;5.55;;
67278;SDS011;54193;53.746;10.058;2023-04-15T00:12:39;11.38;;;4.53;;
67278;SDS011;54193;53.746;10.058;2023-04-15T00:15:25;14.07;;;5.35;;
67278;SDS011;54193;53.746;10.058;2023-04-15T00:18:11;15.20;;;5.28;;
67278;SDS011;54193;53.746;10.058;2023-04-15T00:20:57;13.30;;;5.40;;
67278;SDS011;54193;53.746;10.058;2023-04-15T00:23:43;13.88;;;6.28;;
67278;SDS011;54193;53.746;10.058;2023-04-15T00:26:29;17.17;;;5.80;;
67278;SDS011;54193;53.746;10.058;2023-04-15T00:29:15;17.23;;;5.95;;
67278;SDS011;54193;53.746;10.058;2023-04-15T00:32:00;16.77;;;6.68;;
67278;SDS011;54193;53.746;10.058;2023-04-15T00:34:46;15.47;;;6.20;;
67278;SDS011;54193;53.746;10.058;2023-04-15T00:37:32;18.13;;;6.05;;
67278;SDS011;54193;53.746;10.058;2023-04-15T00:40:20;16.90;;;6.32;;
67278;SDS011;54193;53.746;10.058;2023-04-15T00:43:06;16.42;;;5.88;;
67278;SDS011;54193;53.746;10.058;2023-04-15T00:45:52;14.38;;;5.45;;
67278;SDS011;54193;53.746;10.058;2023-04-15T00:48:40;20.17;;;7.25;;
67278;SDS011;54193;53.746;10.058;2023-04-15T00:51:26;17.08;;;6.40;;
67278;SDS011;54193;53.746;10.058;2023-04-15T00:54:12;18.17;;;6.47;;
67278;SDS011;54193;53.746;10.058;2023-04-15T00:56:57;20.05;;;6.63;;
67278;SDS011;54193;53.746;10.058;2023-04-15T00:59:44;17.00;;;6.07;;
67278;SDS011;54193;53.746;10.058;2023-04-15T01:02:30;17.77;;;5.87;;
67278;SDS011;54193;53.746;10.058;2023-04-15T01:05:17;16.88;;;6.50;;
67278;SDS011;54193;53.746;10.058;2023-04-15T01:08:04;16.63;;;5.63;;
67278;SDS011;54193;53.746;10.058;2023-04-15T01:10:50;20.42;;;6.75;;
67278;SDS011;54193;53.746;10.058;2023-04-15T01:13:35;15.93;;;6.38;;
67278;SDS011;54193;53.746;10.058;2023-04-15T01:16:21;18.25;;;6.13;;
67278;SDS011;54193;53.746;10.058;2023-04-15T01:19:07;17.73;;;6.88;;
67278;SDS011;54193;53.746;10.058;2023-04-15T01:21:55;14.53;;;5.20;;
67278;SDS011;54193;53.746;10.058;2023-04-15T01:24:43;16.13;;;6.00;;
67278;SDS011;54193;53.746;10.058;2023-04-15T01:27:39;17.95;;;6.85;;
67278;SDS011;54193;53.746;10.058;2023-04-15T01:30:26;17.80;;;7.07;;
67278;SDS011;54193;53.746;10.058;2023-04-15T01:33:12;16.38;;;6.15;;
67278;SDS011;54193;53.746;10.058;2023-04-15T01:35:57;19.80;;;6.93;;
67278;SDS011;54193;53.746;10.058;2023-04-15T01:38:43;18.45;;;6.45;;
67278;SDS011;54193;53.746;10.058;2023-04-15T01:41:29;21.20;;;7.35;;
67278;SDS011;54193;53.746;10.058;2023-04-15T01:44:15;20.45;;;7.20;;
67278;SDS011;54193;53.746;10.058;2023-04-15T01:47:00;22.10;;;7.75;;
67278;SDS011;54193;53.746;10.058;2023-04-15T01:49:46;21.17;;;7.10;;
67278;SDS011;54193;53.746;10.058;2023-04-15T01:52:32;23.05;;;7.38;;
67278;SDS011;54193;53.746;10.058;2023-04-15T01:55:18;22.83;;;7.40;;
67278;SDS011;54193;53.746;10.058;2023-04-15T01:58:03;20.47;;;7.43;;
67278;SDS011;54193;53.746;10.058;2023-04-15T02:00:49;25.23;;;7.20;;
67278;SDS011;54193;53.746;10.058;2023-04-15T02:03:34;23.95;;;7.45;;
67278;SDS011;54193;53.746;10.058;2023-04-15T02:06:21;23.65;;;7.82;;
67278;SDS011;54193;53.746;10.058;2023-04-15T02:09:07;25.85;;;8.88;;
67278;SDS011;54193;53.746;10.058;2023-04-15T02:11:53;26.08;;;8.18;;
67278;SDS011;54193;53.746;10.058;2023-04-15T02:14:39;28.23;;;8.45;;
67278;SDS011;54193;53.746;10.058;2023-04-15T02:17:24;26.30;;;8.30;;
67278;SDS011;54193;53.746;10.058;2023-04-15T02:20:10;26.98;;;8.85;;
67278;SDS011;54193;53.746;10.058;2023-04-15T02:22:56;29.80;;;8.98;;
67278;SDS011;54193;53.746;10.058;2023-04-15T02:25:42;29.23;;;8.67;;
67278;SDS011;54193;53.746;10.058;2023-04-15T02:28:27;25.70;;;8.93;;
67278;SDS011;54193;53.746;10.058;2023-04-15T02:31:13;27.40;;;8.40;;
67278;SDS011;54193;53.746;10.058;2023-04-15T02:33:59;27.83;;;9.07;;
67278;SDS011;54193;53.746;10.058;2023-04-15T02:36:44;27.02;;;8.00;;
67278;SDS011;54193;53.746;10.058;2023-04-15T02:39:32;28.60;;;8.70;;
67278;SDS011;54193;53.746;10.058;2023-04-15T02:42:18;35.03;;;9.88;;
67278;SDS011;54193;53.746;10.058;2023-04-15T02:45:06;34.90;;;10.40;;
67278;SDS011;54193;53.746;10.058;2023-04-15T02:47:52;32.15;;;10.27;;
67278;SDS011;54193;53.746;10.058;2023-04-15T02:50:38;38.70;;;10.85;;
67278;SDS011;54193;53.746;10.058;2023-04-15T02:53:25;35.97;;;10.60;;
67278;SDS011;54193;53.746;10.058;2023-04-15T02:56:11;29.90;;;8.90;;
67278;SDS011;54193;53.746;10.058;2023-04-15T02:58:56;35.75;;;10.73;;
67278;SDS011;54193;53.746;10.058;2023-04-15T03:01:42;31.92;;;10.25;;
67278;SDS011;54193;53.746;10.058;2023-04-15T03:04:28;26.80;;;8.30;;
67278;SDS011;54193;53.746;10.058;2023-04-15T03:07:16;35.80;;;10.68;;
67278;SDS011;54193;53.746;10.058;2023-04-15T03:10:02;40.95;;;11.57;;
67278;SDS011;54193;53.746;10.058;2023-04-15T03:12:48;38.07;;;10.73;;
67278;SDS011;54193;53.746;10.058;2023-04-15T03:15:33;39.85;;;11.15;;
67278;SDS011;54193;53.746;10.058;2023-04-15T03:18:19;42.70;;;11.90;;
67278;SDS011;54193;53.746;10.058;2023-04-15T03:21:05;39.87;;;11.57;;
67278;SDS011;54193;53.746;10.058;2023-04-15T03:23:51;46.03;;;12.98;;
67278;SDS011;54193;53.746;10.058;2023-04-15T03:26:37;45.10;;;12.68;;
67278;SDS011;54193;53.746;10.058;2023-04-15T03:29:23;49.63;;;13.52;;
67278;SDS011;54193;53.746;10.058;2023-04-15T03:32:08;59.15;;;14.95;;
67278;SDS011;54193;53.746;10.058;2023-04-15T03:34:54;56.15;;;15.00;;
67278;SDS011;54193;53.746;10.058;2023-04-15T03:37:40;62.80;;;14.77;;
67278;SDS011;54193;53.746;10.058;2023-04-15T03:40:25;42.33;;;11.83;;
67278;SDS011;54193;53.746;10.058;2023-04-15T03:43:11;58.97;;;14.85;;
67278;SDS011;54193;53.746;10.058;2023-04-15T03:45:57;59.35;;;16.63;;
67278;SDS011;54193;53.746;10.058;2023-04-15T03:48:42;64.77;;;17.67;;
67278;SDS011;54193;53.746;10.058;2023-04-15T03:51:28;68.40;;;16.95;;
67278;SDS011;54193;53.746;10.058;2023-04-15T03:54:13;75.38;;;19.00;;
67278;SDS011;54193;53.746;10.058;2023-04-15T03:56:59;67.75;;;17.60;;
67278;SDS011;54193;53.746;10.058;2023-04-15T03:59:45;63.25;;;16.65;;
67278;SDS011;54193;53.746;10.058;2023-04-15T04:02:31;69.40;;;17.42;;
67278;SDS011;54193;53.746;10.058;2023-04-15T04:05:16;76.40;;;18.50;;
67278;SDS011;54193;53.746;10.058;2023-04-15T04:08:02;73.80;;;19.47;;
67278;SDS011;54193;53.746;10.058;2023-04-15T04:10:48;71.05;;;18.90;;
67278;SDS011;54193;53.746;10.058;2023-04-15T04:13:34;60.63;;;16.63;;
67278;SDS011;54193;53.746;10.058;2023-04-15T04:16:21;65.00;;;17.27;;
67278;SDS011;54193;53.746;10.058;2023-04-15T04:19:07;79.03;;;20.63;;
67278;SDS011;54193;53.746;10.058;2023-04-15T04:21:52;67.97;;;17.63;;
67278;SDS011;54193;53.746;10.058;2023-04-15T04:24:38;85.07;;;19.58;;
67278;SDS011;54193;53.746;10.058;2023-04-15T04:27:24;43.35;;;12.13;;
67278;SDS011;54193;53.746;10.058;2023-04-15T04:30:10;58.97;;;16.20;;
67278;SDS011;54193;53.746;10.058;2023-04-15T04:32:56;74.47;;;20.48;;
67278;SDS011;54193;53.746;10.058;2023-04-15T04:35:42;82.73;;;20.93;;
67278;SDS011;54193;53.746;10.058;2023-04-15T04:38:28;83.72;;;20.63;;
67278;SDS011;54193;53.746;10.058;2023-04-15T04:41:13;74.65;;;19.08;;
67278;SDS011;54193;53.746;10.058;2023-04-15T04:43:59;68.30;;;18.20;;
67278;SDS011;54193;53.746;10.058;2023-04-15T04:46:44;89.65;;;22.88;;
67278;SDS011;54193;53.746;10.058;2023-04-15T04:49:30;89.20;;;22.23;;
67278;SDS011;54193;53.746;10.058;2023-04-15T04:52:16;88.13;;;22.13;;
67278;SDS011;54193;53.746;10.058;2023-04-15T04:55:02;83.18;;;21.05;;
67278;SDS011;54193;53.746;10.058;2023-04-15T04:57:47;84.80;;;20.83;;
67278;SDS011;54193;53.746;10.058;2023-04-15T05:00:33;87.97;;;22.45;;
67278;SDS011;54193;53.746;10.058;2023-04-15T05:03:19;83.63;;;21.13;;
67278;SDS011;54193;53.746;10.058;2023-04-15T05:06:04;81.45;;;21.30;;
67278;SDS011;54193;53.746;10.058;2023-04-15T05:08:53;77.68;;;21.30;;
67278;SDS011;54193;53.746;10.058;2023-04-15T05:11:38;94.00;;;23.97;;
67278;SDS011;54193;53.746;10.058;2023-04-15T05:14:24;67.80;;;18.30;;
67278;SDS011;54193;53.746;10.058;2023-04-15T05:17:09;86.40;;;22.17;;
67278;SDS011;54193;53.746;10.058;2023-04-15T05:19:55;88.47;;;26.55;;
67278;SDS011;54193;53.746;10.058;2023-04-15T05:22:41;75.18;;;21.77;;
67278;SDS011;54193;53.746;10.058;2023-04-15T05:25:27;75.28;;;21.08;;
67278;SDS011;54193;53.746;10.058;2023-04-15T05:28:12;87.82;;;23.50;;
67278;SDS011;54193;53.746;10.058;2023-04-15T05:30:58;86.57;;;22.60;;
67278;SDS011;54193;53.746;10.058;2023-04-15T05:33:44;90.60;;;23.52;;
67278;SDS011;54193;53.746;10.058;2023-04-15T05:36:29;82.28;;;22.45;;
67278;SDS011;54193;53.746;10.058;2023-04-15T05:39:16;74.23;;;21.67;;
67278;SDS011;54193;53.746;10.058;2023-04-15T05:42:02;64.18;;;20.15;;
67278;SDS011;54193;53.746;10.058;2023-04-15T05:44:47;84.75;;;22.20;;
67278;SDS011;54193;53.746;10.058;2023-04-15T05:47:36;82.47;;;22.30;;
67278;SDS011;54193;53.746;10.058;2023-04-15T05:50:22;85.15;;;22.27;;
67278;SDS011;54193;53.746;10.058;2023-04-15T05:53:08;88.95;;;25.55;;
67278;SDS011;54193;53.746;10.058;2023-04-15T05:55:53;93.25;;;26.02;;
67278;SDS011;54193;53.746;10.058;2023-04-15T05:58:39;96.67;;;25.90;;
67278;SDS011;54193;53.746;10.058;2023-04-15T06:01:25;77.82;;;20.50;;
67278;SDS011;54193;53.746;10.058;2023-04-15T06:04:11;96.75;;;24.45;;
67278;SDS011;54193;53.746;10.058;2023-04-15T06:06:56;94.13;;;26.73;;
67278;SDS011;54193;53.746;10.058;2023-04-15T06:09:42;81.82;;;25.88;;
67278;SDS011;54193;53.746;10.058;2023-04-15T06:12:27;67.80;;;24.70;;
67278;SDS011;54193;53.746;10.058;2023-04-15T06:15:13;91.57;;;28.75;;
67278;SDS011;54193;53.746;10.058;2023-04-15T06:17:59;99.25;;;28.17;;
67278;SDS011;54193;53.746;10.058;2023-04-15T06:20:45;79.72;;;23.38;;
67278;SDS011;54193;53.746;10.058;2023-04-15T06:23:32;62.67;;;19.33;;
67278;SDS011;54193;53.746;10.058;2023-04-15T06:26:19;60.83;;;20.80;;
67278;SDS011;54193;53.746;10.058;2023-04-15T06:29:05;96.10;;;29.40;;
67278;SDS011;54193;53.746;10.058;2023-04-15T06:31:50;98.40;;;27.67;;
67278;SDS011;54193;53.746;10.058;2023-04-15T06:34:36;75.40;;;24.37;;
67278;SDS011;54193;53.746;10.058;2023-04-15T06:37:22;94.05;;;30.40;;
67278;SDS011;54193;53.746;10.058;2023-04-15T06:40:08;96.90;;;28.40;;
67278;SDS011;54193;53.746;10.058;2023-04-15T06:42:54;94.28;;;28.17;;
67278;SDS011;54193;53.746;10.058;2023-04-15T06:45:40;84.70;;;26.20;;
67278;SDS011;54193;53.746;10.058;2023-04-15T06:48:25;92.53;;;28.13;;
67278;SDS011;54193;53.746;10.058;2023-04-15T06:51:11;89.93;;;28.60;;
67278;SDS011;54193;53.746;10.058;2023-04-15T06:53:57;83.70;;;25.87;;
67278;SDS011;54193;53.746;10.058;2023-04-15T06:56:43;102.80;;;31.25;;
67278;SDS011;54193;53.746;10.058;2023-04-15T06:59:28;81.60;;;31.40;;
67278;SDS011;54193;53.746;10.058;2023-04-15T07:02:14;85.00;;;36.67;;
67278;SDS011;54193;53.746;10.058;2023-04-15T07:05:00;80.60;;;28.67;;
67278;SDS011;54193;53.746;10.058;2023-04-15T07:07:45;66.43;;;26.55;;
67278;SDS011;54193;53.746;10.058;2023-04-15T07:10:32;86.70;;;25.98;;
67278;SDS011;54193;53.746;10.058;2023-04-15T07:13:18;85.75;;;27.83;;
67278;SDS011;54193;53.746;10.058;2023-04-15T07:16:04;65.32;;;22.13;;
67278;SDS011;54193;53.746;10.058;2023-04-15T07:18:49;74.85;;;31.05;;
67278;SDS011;54193;53.746;10.058;2023-04-15T07:21:35;77.30;;;24.50;;
67278;SDS011;54193;53.746;10.058;2023-04-15T07:24:21;80.55;;;26.60;;
67278;SDS011;54193;53.746;10.058;2023-04-15T07:27:07;94.70;;;28.88;;
67278;SDS011;54193;53.746;10.058;2023-04-15T07:29:53;89.83;;;27.07;;
67278;SDS011;54193;53.746;10.058;2023-04-15T07:32:39;72.38;;;25.40;;
67278;SDS011;54193;53.746;10.058;2023-04-15T07:35:25;91.53;;;27.38;;
67278;SDS011;54193;53.746;10.058;2023-04-15T07:38:10;83.30;;;24.20;;
67278;SDS011;54193;53.746;10.058;2023-04-15T07:40:59;73.43;;;22.77;;
67278;SDS011;54193;53.746;10.058;2023-04-15T07:43:45;58.13;;;19.20;;
67278;SDS011;54193;53.746;10.058;2023-04-15T07:46:31;83.93;;;28.13;;
67278;SDS011;54193;53.746;10.058;2023-04-15T07:49:17;84.47;;;26.47;;
67278;SDS011;54193;53.746;10.058;2023-04-15T07:52:03;84.00;;;26.85;;
67278;SDS011;54193;53.746;10.058;2023-04-15T07:54:49;79.03;;;25.38;;
67278;SDS011;54193;53.746;10.058;2023-04-15T07:57:36;72.13;;;22.67;;
67278;SDS011;54193;53.746;10.058;2023-04-15T08:00:21;78.38;;;25.98;;
67278;SDS011;54193;53.746;10.058;2023-04-15T08:03:07;74.38;;;24.00;;
67278;SDS011;54193;53.746;10.058;2023-04-15T08:05:53;61.13;;;20.27;;
67278;SDS011;54193;53.746;10.058;2023-04-15T08:08:39;68.90;;;23.52;;
67278;SDS011;54193;53.746;10.058;2023-04-15T08:11:24;58.80;;;24.38;;
67278;SDS011;54193;53.746;10.058;2023-04-15T08:14:10;68.63;;;24.33;;
67278;SDS011;54193;53.746;10.058;2023-04-15T08:16:56;70.13;;;24.23;;
67278;SDS011;54193;53.746;10.058;2023-04-15T08:19:41;70.22;;;22.90;;
67278;SDS011;54193;53.746;10.058;2023-04-15T08:22:27;51.15;;;17.95;;
67278;SDS011;54193;53.746;10.058;2023-04-15T08:25:12;61.70;;;20.13;;
67278;SDS011;54193;53.746;10.058;2023-04-15T08:28:02;64.22;;;21.92;;
67278;SDS011;54193;53.746;10.058;2023-04-15T08:30:49;77.03;;;24.85;;
67278;SDS011;54193;53.746;10.058;2023-04-15T08:33:37;56.30;;;22.50;;
67278;SDS011;54193;53.746;10.058;2023-04-15T08:36:22;64.57;;;22.33;;
67278;SDS011;54193;53.746;10.058;2023-04-15T08:39:08;75.15;;;25.23;;
67278;SDS011;54193;53.746;10.058;2023-04-15T08:41:55;60.60;;;19.35;;
67278;SDS011;54193;53.746;10.058;2023-04-15T08:44:49;81.50;;;27.33;;
67278;SDS011;54193;53.746;10.058;2023-04-15T08:47:36;58.83;;;19.13;;
67278;SDS011;54193;53.746;10.058;2023-04-15T08:50:27;65.57;;;22.35;;
67278;SDS011;54193;53.746;10.058;2023-04-15T08:53:14;63.67;;;23.50;;
67278;SDS011;54193;53.746;10.058;2023-04-15T08:56:00;65.05;;;23.20;;
67278;SDS011;54193;53.746;10.058;2023-04-15T08:58:49;66.25;;;28.17;;
67278;SDS011;54193;53.746;10.058;2023-04-15T09:01:35;57.90;;;23.30;;
67278;SDS011;54193;53.746;10.058;2023-04-15T09:04:22;73.75;;;25.90;;
67278;SDS011;54193;53.746;10.058;2023-04-15T09:07:07;63.70;;;22.25;;
67278;SDS011;54193;53.746;10.058;2023-04-15T09:09:53;63.78;;;24.30;;
67278;SDS011;54193;53.746;10.058;2023-04-15T09:12:38;33.27;;;12.77;;
67278;SDS011;54193;53.746;10.058;2023-04-15T09:15:24;43.65;;;16.52;;
67278;SDS011;54193;53.746;10.058;2023-04-15T09:18:11;60.92;;;22.40;;
67278;SDS011;54193;53.746;10.058;2023-04-15T09:21:05;44.43;;;17.73;;
67278;SDS011;54193;53.746;10.058;2023-04-15T09:23:56;45.67;;;18.73;;
67278;SDS011;54193;53.746;10.058;2023-04-15T09:26:45;57.33;;;21.27;;
67278;SDS011;54193;53.746;10.058;2023-04-15T09:29:31;44.92;;;17.65;;
67278;SDS011;54193;53.746;10.058;2023-04-15T09:32:17;53.92;;;21.92;;
67278;SDS011;54193;53.746;10.058;2023-04-15T09:35:10;51.45;;;21.80;;
67278;SDS011;54193;53.746;10.058;2023-04-15T09:38:04;47.40;;;19.30;;
67278;SDS011;54193;53.746;10.058;2023-04-15T09:40:54;54.10;;;21.27;;
67278;SDS011;54193;53.746;10.058;2023-04-15T09:43:40;41.45;;;18.13;;
67278;SDS011;54193;53.746;10.058;2023-04-15T09:46:44;43.95;;;16.25;;
67278;SDS011;54193;53.746;10.058;2023-04-15T09:49:30;40.20;;;19.17;;
67278;SDS011;54193;53.746;10.058;2023-04-15T09:52:17;43.83;;;17.50;;
67278;SDS011;54193;53.746;10.058;2023-04-15T09:55:02;37.45;;;17.10;;
67278;SDS011;54193;53.746;10.058;2023-04-15T09:57:50;49.67;;;19.47;;
67278;SDS011;54193;53.746;10.058;2023-04-15T10:00:36;43.20;;;18.55;;
67278;SDS011;54193;53.746;10.058;2023-04-15T10:06:09;29.37;;;13.83;;
67278;SDS011;54193;53.746;10.058;2023-04-15T10:08:56;39.05;;;16.85;;
67278;SDS011;54193;53.746;10.058;2023-04-15T10:11:42;39.50;;;18.70;;
67278;SDS011;54193;53.746;10.058;2023-04-15T10:14:31;41.15;;;19.10;;
67278;SDS011;54193;53.746;10.058;2023-04-15T10:17:20;41.35;;;19.15;;
67278;SDS011;54193;53.746;10.058;2023-04-15T10:20:07;39.50;;;18.65;;
67278;SDS011;54193;53.746;10.058;2023-04-15T10:22:54;40.60;;;20.70;;
67278;SDS011;54193;53.746;10.058;2023-04-15T10:25:40;39.20;;;17.23;;
67278;SDS011;54193;53.746;10.058;2023-04-15T10:28:26;36.00;;;15.40;;
67278;SDS011;54193;53.746;10.058;2023-04-15T10:31:12;32.95;;;16.30;;
67278;SDS011;54193;53.746;10.058;2023-04-15T10:34:01;31.93;;;14.70;;
67278;SDS011;54193;53.746;10.058;2023-04-15T10:36:50;32.78;;;18.00;;
67278;SDS011;54193;53.746;10.058;2023-04-15T10:39:40;32.22;;;17.27;;
67278;SDS011;54193;53.746;10.058;2023-04-15T10:42:32;32.38;;;17.23;;
67278;SDS011;54193;53.746;10.058;2023-04-15T10:45:19;32.97;;;16.65;;
67278;SDS011;54193;53.746;10.058;2023-04-15T10:48:08;27.75;;;15.30;;
67278;SDS011;54193;53.746;10.058;2023-04-15T10:50:56;27.42;;;15.63;;
67278;SDS011;54193;53.746;10.058;2023-04-15T10:53:44;20.83;;;11.90;;
67278;SDS011;54193;53.746;10.058;2023-04-15T10:56:30;20.48;;;10.25;;
67278;SDS011;54193;53.746;10.058;2023-04-15T10:59:16;20.80;;;12.48;;
67278;SDS011;54193;53.746;10.058;2023-04-15T11:04:55;22.25;;;12.90;;
67278;SDS011;54193;53.746;10.058;2023-04-15T11:13:20;23.77;;;13.50;;
67278;SDS011;54193;53.746;10.058;2023-04-15T11:16:06;18.85;;;10.50;;
67278;SDS011;54193;53.746;10.058;2023-04-15T11:18:53;18.15;;;10.40;;
67278;SDS011;54193;53.746;10.058;2023-04-15T11:21:40;17.67;;;11.37;;
67278;SDS011;54193;53.746;10.058;2023-04-15T11:24:25;14.05;;;8.88;;
67278;SDS011;54193;53.746;10.058;2023-04-15T11:27:19;15.88;;;9.57;;
67278;SDS011;54193;53.746;10.058;2023-04-15T11:30:22;20.77;;;11.97;;
67278;SDS011;54193;53.746;10.058;2023-04-15T11:33:11;18.65;;;11.02;;
67278;SDS011;54193;53.746;10.058;2023-04-15T11:35:58;15.82;;;11.07;;
67278;SDS011;54193;53.746;10.058;2023-04-15T11:38:45;13.93;;;7.40;;
67278;SDS011;54193;53.746;10.058;2023-04-15T11:41:31;16.05;;;8.23;;
67278;SDS011;54193;53.746;10.058;2023-04-15T11:44:17;19.42;;;10.63;;
67278;SDS011;54193;53.746;10.058;2023-04-15T11:47:21;15.40;;;8.23;;
67278;SDS011;54193;53.746;10.058;2023-04-15T11:50:20;15.80;;;11.63;;
67278;SDS011;54193;53.746;10.058;2023-04-15T11:53:08;16.13;;;9.77;;
67278;SDS011;54193;53.746;10.058;2023-04-15T11:55:55;17.92;;;9.85;;
67278;SDS011;54193;53.746;10.058;2023-04-15T11:58:41;14.90;;;8.83;;
67278;SDS011;54193;53.746;10.058;2023-04-15T12:01:37;17.05;;;9.27;;
67278;SDS011;54193;53.746;10.058;2023-04-15T12:04:28;16.02;;;9.95;;
67278;SDS011;54193;53.746;10.058;2023-04-15T12:07:13;16.40;;;8.68;;
67278;SDS011;54193;53.746;10.058;2023-04-15T12:09:59;17.17;;;8.85;;
67278;SDS011;54193;53.746;10.058;2023-04-15T12:12:48;13.25;;;7.25;;
67278;SDS011;54193;53.746;10.058;2023-04-15T12:15:36;15.68;;;8.93;;
67278;SDS011;54193;53.746;10.058;2023-04-15T12:18:24;19.57;;;12.00;;
67278;SDS011;54193;53.746;10.058;2023-04-15T12:21:10;18.92;;;10.55;;
67278;SDS011;54193;53.746;10.058;2023-04-15T12:23:56;19.10;;;10.68;;
67278;SDS011;54193;53.746;10.058;2023-04-15T12:26:49;18.20;;;10.80;;
67278;SDS011;54193;53.746;10.058;2023-04-15T12:29:40;14.63;;;8.25;;
67278;SDS011;54193;53.746;10.058;2023-04-15T12:32:27;19.70;;;11.57;;
67278;SDS011;54193;53.746;10.058;2023-04-15T12:35:13;18.77;;;9.50;;
67278;SDS011;54193;53.746;10.058;2023-04-15T12:37:59;19.45;;;11.23;;
67278;SDS011;54193;53.746;10.058;2023-04-15T12:40:45;19.98;;;10.95;;
67278;SDS011;54193;53.746;10.058;2023-04-15T12:43:31;18.58;;;10.88;;
67278;SDS011;54193;53.746;10.058;2023-04-15T12:46:17;22.27;;;11.53;;
67278;SDS011;54193;53.746;10.058;2023-04-15T12:49:03;20.92;;;10.85;;
67278;SDS011;54193;53.746;10.058;2023-04-15T12:51:49;19.13;;;13.20;;
67278;SDS011;54193;53.746;10.058;2023-04-15T12:54:38;19.75;;;11.23;;
67278;SDS011;54193;53.746;10.058;2023-04-15T12:57:23;16.23;;;8.70;;
67278;SDS011;54193;53.746;10.058;2023-04-15T13:00:09;19.00;;;10.63;;
67278;SDS011;54193;53.746;10.058;2023-04-15T13:02:55;15.40;;;8.55;;
67278;SDS011;54193;53.746;10.058;2023-04-15T13:05:41;17.27;;;9.40;;
67278;SDS011;54193;53.746;10.058;2023-04-15T13:08:27;16.42;;;9.63;;
67278;SDS011;54193;53.746;10.058;2023-04-15T13:11:13;16.83;;;8.88;;
67278;SDS011;54193;53.746;10.058;2023-04-15T13:14:05;18.67;;;10.85;;
67278;SDS011;54193;53.746;10.058;2023-04-15T13:16:52;14.33;;;8.67;;
67278;SDS011;54193;53.746;10.058;2023-04-15T13:19:38;14.10;;;7.65;;
67278;SDS011;54193;53.746;10.058;2023-04-15T13:22:23;16.27;;;10.20;;
67278;SDS011;54193;53.746;10.058;2023-04-15T13:25:09;16.40;;;10.77;;
67278;SDS011;54193;53.746;10.058;2023-04-15T13:27:55;16.05;;;8.80;;
67278;SDS011;54193;53.746;10.058;2023-04-15T13:30:41;16.58;;;10.02;;
67278;SDS011;54193;53.746;10.058;2023-04-15T13:33:28;13.18;;;8.07;;
67278;SDS011;54193;53.746;10.058;2023-04-15T13:36:14;15.75;;;9.93;;
67278;SDS011;54193;53.746;10.058;2023-04-15T13:38:59;15.02;;;7.75;;
67278;SDS011;54193;53.746;10.058;2023-04-15T13:41:45;15.25;;;7.63;;
67278;SDS011;54193;53.746;10.058;2023-04-15T13:44:32;14.37;;;8.60;;
67278;SDS011;54193;53.746;10.058;2023-04-15T13:47:18;22.38;;;10.73;;
67278;SDS011;54193;53.746;10.058;2023-04-15T13:50:04;20.73;;;11.55;;
67278;SDS011;54193;53.746;10.058;2023-04-15T13:52:51;20.13;;;12.10;;
67278;SDS011;54193;53.746;10.058;2023-04-15T13:55:36;20.95;;;11.93;;
67278;SDS011;54193;53.746;10.058;2023-04-15T13:58:27;19.92;;;12.02;;
67278;SDS011;54193;53.746;10.058;2023-04-15T14:01:13;18.55;;;9.73;;
67278;SDS011;54193;53.746;10.058;2023-04-15T14:03:59;17.52;;;9.73;;
67278;SDS011;54193;53.746;10.058;2023-04-15T14:06:44;18.65;;;9.93;;
67278;SDS011;54193;53.746;10.058;2023-04-15T14:09:30;17.13;;;9.85;;
67278;SDS011;54193;53.746;10.058;2023-04-15T14:12:16;20.30;;;10.93;;
67278;SDS011;54193;53.746;10.058;2023-04-15T14:15:01;19.38;;;13.48;;
67278;SDS011;54193;53.746;10.058;2023-04-15T14:17:47;15.52;;;8.93;;
67278;SDS011;54193;53.746;10.058;2023-04-15T14:20:33;17.00;;;9.47;;
67278;SDS011;54193;53.746;10.058;2023-04-15T14:23:18;16.65;;;9.55;;
67278;SDS011;54193;53.746;10.058;2023-04-15T14:26:04;16.27;;;9.43;;
67278;SDS011;54193;53.746;10.058;2023-04-15T14:28:50;18.83;;;10.52;;
67278;SDS011;54193;53.746;10.058;2023-04-15T14:31:36;15.68;;;8.70;;
67278;SDS011;54193;53.746;10.058;2023-04-15T14:34:22;16.60;;;10.15;;
67278;SDS011;54193;53.746;10.058;2023-04-15T14:37:09;14.45;;;7.88;;
67278;SDS011;54193;53.746;10.058;2023-04-15T14:39:55;16.33;;;9.07;;
67278;SDS011;54193;53.746;10.058;2023-04-15T14:42:41;16.02;;;8.60;;
67278;SDS011;54193;53.746;10.058;2023-04-15T14:45:26;15.73;;;9.23;;
67278;SDS011;54193;53.746;10.058;2023-04-15T14:48:12;18.60;;;9.23;;
67278;SDS011;54193;53.746;10.058;2023-04-15T14:50:58;15.30;;;8.85;;
67278;SDS011;54193;53.746;10.058;2023-04-15T14:53:44;13.20;;;7.18;;
67278;SDS011;54193;53.746;10.058;2023-04-15T14:56:30;15.55;;;9.02;;
67278;SDS011;54193;53.746;10.058;2023-04-15T14:59:16;15.30;;;8.73;;
67278;SDS011;54193;53.746;10.058;2023-04-15T15:02:02;17.38;;;10.80;;
67278;SDS011;54193;53.746;10.058;2023-04-15T15:04:48;16.92;;;9.02;;
67278;SDS011;54193;53.746;10.058;2023-04-15T15:07:33;17.77;;;10.33;;
67278;SDS011;54193;53.746;10.058;2023-04-15T15:10:21;17.10;;;9.73;;
67278;SDS011;54193;53.746;10.058;2023-04-15T15:13:07;11.38;;;5.70;;
67278;SDS011;54193;53.746;10.058;2023-04-15T15:15:55;16.63;;;10.73;;
67278;SDS011;54193;53.746;10.058;2023-04-15T15:18:41;15.07;;;8.85;;
67278;SDS011;54193;53.746;10.058;2023-04-15T15:21:28;16.23;;;9.30;;
67278;SDS011;54193;53.746;10.058;2023-04-15T15:24:13;21.30;;;10.48;;
67278;SDS011;54193;53.746;10.058;2023-04-15T15:26:59;12.57;;;7.07;;
67278;SDS011;54193;53.746;10.058;2023-04-15T15:29:46;17.63;;;9.35;;
67278;SDS011;54193;53.746;10.058;2023-04-15T15:32:31;17.73;;;10.43;;
67278;SDS011;54193;53.746;10.058;2023-04-15T15:35:17;13.07;;;7.23;;
67278;SDS011;54193;53.746;10.058;2023-04-15T15:38:03;17.58;;;8.25;;
67278;SDS011;54193;53.746;10.058;2023-04-15T15:40:48;13.85;;;7.18;;
67278;SDS011;54193;53.746;10.058;2023-04-15T15:43:34;18.63;;;9.77;;
67278;SDS011;54193;53.746;10.058;2023-04-15T15:46:20;17.27;;;10.07;;
67278;SDS011;54193;53.746;10.058;2023-04-15T15:49:05;18.02;;;10.27;;
67278;SDS011;54193;53.746;10.058;2023-04-15T15:51:51;17.08;;;9.52;;
67278;SDS011;54193;53.746;10.058;2023-04-15T15:54:38;18.10;;;9.70;;
67278;SDS011;54193;53.746;10.058;2023-04-15T15:57:24;18.50;;;10.75;;
67278;SDS011;54193;53.746;10.058;2023-04-15T16:00:10;20.05;;;10.18;;
67278;SDS011;54193;53.746;10.058;2023-04-15T16:02:56;23.23;;;12.93;;
67278;SDS011;54193;53.746;10.058;2023-04-15T16:05:42;19.02;;;10.65;;
67278;SDS011;54193;53.746;10.058;2023-04-15T16:08:28;21.17;;;11.20;;
67278;SDS011;54193;53.746;10.058;2023-04-15T16:11:14;15.83;;;7.57;;
67278;SDS011;54193;53.746;10.058;2023-04-15T16:13:59;22.98;;;12.73;;
67278;SDS011;54193;53.746;10.058;2023-04-15T16:16:45;19.52;;;11.52;;